createdAt,value
2022-08-17T00:02:09.860Z,91674.81
2022-08-17T00:04:51.084Z,91677.63
2022-08-17T00:07:17.605Z,91683.22
2022-08-17T00:09:44.106Z,91682.50
2022-08-17T00:12:51.381Z,91680.41
2022-08-17T00:14:57.299Z,91680.41
2022-08-17T00:17:23.933Z,91683.22
2022-08-17T00:19:50.464Z,91700.03
2022-08-17T00:22:34.159Z,91693.69
2022-08-17T00:25:07.419Z,91681.78
2022-08-17T00:27:34.811Z,91682.50
2022-08-17T00:30:01.483Z,91680.41
2022-08-17T00:33:12.189Z,91687.38
2022-08-17T00:35:18.351Z,91672.03
2022-08-17T00:37:45.240Z,91668.50
2022-08-17T00:40:14.422Z,91658.66
2022-08-17T00:42:42.653Z,91666.31
2022-08-17T00:45:12.268Z,91670.47
2022-08-17T00:47:39.270Z,91664.88
2022-08-17T00:50:08.723Z,91652.31
2022-08-17T00:52:41.207Z,91656.47
2022-08-17T00:55:09.688Z,91650.25
2022-08-17T00:57:45.084Z,91639.69
2022-08-17T01:00:21.328Z,91635.53
2022-08-17T01:02:48.748Z,91634.09
2022-08-17T01:05:19.770Z,91632.00
2022-08-17T01:07:50.891Z,91641.13
2022-08-17T01:10:59.223Z,91634.09
2022-08-17T01:13:09.642Z,91631.28
2022-08-17T01:15:38.359Z,91628.47
2022-08-17T01:18:08.028Z,91632.63
2022-08-17T01:20:48.655Z,91628.47
2022-08-17T01:23:18.562Z,91620.72
2022-08-17T01:25:52.537Z,91623.50
2022-08-17T01:28:52.221Z,91627.00
2022-08-17T01:31:08.763Z,91638.94
2022-08-17T01:33:35.658Z,91641.66
2022-08-17T01:36:03.604Z,91638.94
2022-08-17T01:38:31.870Z,91632.63
2022-08-17T01:41:02.972Z,91625.59
2022-08-17T01:43:34.699Z,91631.91
2022-08-17T01:46:03.885Z,91635.31
2022-08-17T01:48:36.248Z,91641.66
2022-08-17T01:51:02.871Z,91640.91
2022-08-17T01:53:41.533Z,91652.84
2022-08-17T01:56:12.390Z,91644.44
2022-08-17T01:58:40.268Z,91646.50
2022-08-17T02:01:08.720Z,91645.91
2022-08-17T02:03:36.499Z,91638.84
2022-08-17T02:06:05.367Z,91646.50
2022-08-17T02:08:39.009Z,91647.25
2022-08-17T02:11:22.475Z,91652.09
2022-08-17T02:13:57.839Z,91652.09
2022-08-17T02:16:29.561Z,91646.50
2022-08-17T02:19:07.586Z,91652.09
2022-08-17T02:21:35.787Z,91640.19
2022-08-17T02:24:04.419Z,91645.81
2022-08-17T02:26:30.997Z,91640.91
2022-08-17T02:28:57.526Z,91640.91
2022-08-17T02:31:24.059Z,91639.47
2022-08-17T02:34:00.435Z,91645.06
2022-08-17T02:36:35.037Z,91645.06
2022-08-17T02:39:06.923Z,91644.34
2022-08-17T02:41:34.387Z,91645.06
2022-08-17T02:44:01.429Z,91633.88
2022-08-17T02:46:30.412Z,91632.44
2022-08-17T02:48:57.027Z,91633.13
2022-08-17T02:51:23.830Z,91633.88
2022-08-17T02:53:50.571Z,91631.81
2022-08-17T02:56:17.281Z,91635.94
2022-08-17T02:58:43.959Z,91645.06
2022-08-17T03:01:10.638Z,91645.06
2022-08-17T03:03:38.289Z,91638.75
2022-08-17T03:06:05.807Z,91644.34
2022-08-17T03:08:32.335Z,91649.22
2022-08-17T03:10:58.928Z,91635.22
2022-08-17T03:13:26.300Z,91629.53
2022-08-17T03:15:53.376Z,91636.56
2022-08-17T03:18:24.976Z,91647.75
2022-08-17T03:20:55.854Z,91642.16
2022-08-17T03:23:23.760Z,91644.97
2022-08-17T03:25:52.966Z,91642.16
2022-08-17T03:28:20.970Z,91653.38
2022-08-17T03:30:47.615Z,91648.50
2022-08-17T03:33:14.698Z,91642.16
2022-08-17T03:35:42.074Z,91638.03
2022-08-17T03:38:11.954Z,91636.56
2022-08-17T03:40:57.473Z,91643.63
2022-08-17T03:43:28.458Z,91637.94
2022-08-17T03:46:28.232Z,91640.72
2022-08-17T03:49:19.426Z,91637.94
2022-08-17T03:52:04.173Z,91640.72
2022-08-17T03:54:49.343Z,91641.44
2022-08-17T03:57:16.393Z,91629.53
2022-08-17T03:59:43.064Z,91636.47
2022-08-17T04:02:17.466Z,91630.88
2022-08-17T04:04:44.498Z,91637.94
2022-08-17T04:07:11.322Z,91644.16
2022-08-17T04:09:37.930Z,91650.47
2022-08-17T04:12:05.399Z,91646.94
2022-08-17T04:14:46.519Z,91650.47
2022-08-17T04:17:21.318Z,91650.47
2022-08-17T04:19:47.867Z,91639.25
2022-08-17T04:22:30.423Z,91640.00
2022-08-17T04:25:16.368Z,91630.88
2022-08-17T04:27:42.976Z,91640.72
2022-08-17T04:30:10.393Z,91651.19
2022-08-17T04:33:07.305Z,91651.94
2022-08-17T04:35:55.974Z,91647.66
2022-08-17T04:38:28.578Z,91647.66
2022-08-17T04:41:15.628Z,91650.47
2022-08-17T04:43:43.907Z,91653.25
2022-08-17T04:46:13.650Z,91649.03
2022-08-17T04:48:49.440Z,91654.63
2022-08-17T04:51:22.762Z,91668.63
2022-08-17T04:53:54.609Z,91663.00
2022-08-17T04:56:23.031Z,91672.16
2022-08-17T04:58:51.311Z,91665.09
2022-08-17T05:01:23.769Z,91662.28
2022-08-17T05:03:52.579Z,91657.41
2022-08-17T05:06:19.269Z,91660.22
2022-08-17T05:08:45.841Z,91660.22
2022-08-17T05:11:12.379Z,91651.81
2022-08-17T05:13:38.916Z,91654.63
2022-08-17T05:16:05.700Z,91649.03
2022-08-17T05:18:32.596Z,91660.22
2022-08-17T05:21:00.113Z,91653.88
2022-08-17T05:23:38.490Z,91665.81
2022-08-17T05:26:09.518Z,91654.63
2022-08-17T05:28:39.572Z,91650.34
2022-08-17T05:31:06.842Z,91666.53
2022-08-17T05:33:36.224Z,91658.75
2022-08-17T05:36:05.200Z,91670.69
2022-08-17T05:38:32.974Z,91671.41
2022-08-17T05:41:02.258Z,91676.28
2022-08-17T05:43:32.278Z,91686.75
2022-08-17T05:46:26.496Z,91686.75
2022-08-17T05:48:57.797Z,91677.00
2022-08-17T05:51:31.994Z,91679.81
2022-08-17T05:54:10.448Z,91681.16
2022-08-17T05:57:11.053Z,91675.53
2022-08-17T05:59:56.497Z,91660.84
2022-08-17T06:02:57.346Z,91677.00
2022-08-17T06:05:47.965Z,91681.16
2022-08-17T06:08:48.205Z,91681.88
2022-08-17T06:11:36.817Z,91686.03
2022-08-17T06:14:31.596Z,91689.53
2022-08-17T06:17:10.285Z,91695.13
2022-08-17T06:19:40.888Z,91708.44
2022-08-17T06:22:11.774Z,91697.94
2022-08-17T06:24:44.078Z,91702.09
2022-08-17T06:27:20.683Z,91702.09
2022-08-17T06:29:57.957Z,91696.50
2022-08-17T06:32:25.158Z,91693.69
2022-08-17T06:34:52.787Z,91688.09
2022-08-17T06:37:31.290Z,91679.72
2022-08-17T06:40:03.100Z,91685.31
2022-08-17T06:43:07.501Z,91686.03
2022-08-17T06:46:06.973Z,91692.34
2022-08-17T06:48:45.290Z,91689.53
2022-08-17T06:51:25.060Z,91682.50
2022-08-17T06:53:59.882Z,91681.16
2022-08-17T06:56:52.666Z,91675.53
2022-08-17T06:59:26.807Z,91667.16
2022-08-17T07:02:52.065Z,91662.28
2022-08-17T07:05:24.264Z,91659.59
2022-08-17T07:08:04.113Z,91653.38
2022-08-17T07:10:47.616Z,91647.97
2022-08-17T07:13:25.508Z,91635.41
2022-08-17T07:15:59.549Z,91629.28
2022-08-17T07:18:33.110Z,91629.91
2022-08-17T07:21:11.911Z,91637.00
2022-08-17T07:23:45.307Z,91638.44
2022-08-17T07:26:13.266Z,91618.19
2022-08-17T07:28:40.311Z,91618.94
2022-08-17T07:31:08.032Z,91620.38
2022-08-17T07:33:36.899Z,91616.22
2022-08-17T07:36:03.778Z,91614.88
2022-08-17T07:38:33.179Z,91614.88
2022-08-17T07:41:09.986Z,91607.94
2022-08-17T07:43:39.263Z,91602.34
2022-08-17T07:46:51.994Z,91594.06
2022-08-17T07:49:33.982Z,91601.09
2022-08-17T07:52:24.171Z,91603.16
2022-08-17T07:54:50.929Z,91599.66
2022-08-17T07:57:20.255Z,91584.31
2022-08-17T08:00:12.815Z,91575.81
2022-08-17T08:02:45.860Z,91566.66
2022-08-17T08:05:30.000Z,91568.00
2022-08-17T08:08:22.742Z,91584.06
2022-08-17T08:11:07.150Z,91578.47
2022-08-17T08:13:35.181Z,91565.84
2022-08-17T08:16:16.971Z,91573.50
2022-08-17T08:18:55.270Z,91564.38
2022-08-17T08:21:51.310Z,91565.84
2022-08-17T08:24:24.054Z,91565.09
2022-08-17T08:27:02.576Z,91569.97
2022-08-17T08:29:43.576Z,91564.38
2022-08-17T08:32:33.204Z,91555.88
2022-08-17T08:35:03.766Z,91546.13
2022-08-17T08:37:54.003Z,91539.06
2022-08-17T08:40:35.179Z,91534.94
2022-08-17T08:43:12.614Z,91533.47
2022-08-17T08:45:39.154Z,91538.38
2022-08-17T08:48:22.743Z,91536.28
2022-08-17T08:51:23.798Z,91539.06
2022-08-17T08:54:35.263Z,91527.88
2022-08-17T08:57:29.118Z,91522.28
2022-08-17T09:00:04.806Z,91530.66
2022-08-17T09:02:46.533Z,91544.66
2022-08-17T09:05:26.068Z,91550.28
2022-08-17T09:08:16.361Z,91541.28
2022-08-17T09:10:49.682Z,91539.28
2022-08-17T09:13:16.067Z,91531.00
2022-08-17T09:15:46.142Z,91528.31
2022-08-17T09:19:00.582Z,91535.44
2022-08-17T09:21:18.956Z,91546.75
2022-08-17T09:24:02.455Z,91542.59
2022-08-17T09:26:41.209Z,91537.06
2022-08-17T09:29:15.537Z,91541.34
2022-08-17T09:31:56.995Z,91544.25
2022-08-17T09:34:35.008Z,91534.69
2022-08-17T09:37:27.453Z,91537.56
2022-08-17T09:40:14.013Z,91531.25
2022-08-17T09:42:59.522Z,91533.41
2022-08-17T09:45:45.168Z,91522.22
2022-08-17T09:48:18.220Z,91523.66
2022-08-17T09:50:55.254Z,91514.44
2022-08-17T09:53:32.194Z,91515.06
2022-08-17T09:56:06.575Z,91520.56
2022-08-17T09:58:51.011Z,91519.13
2022-08-17T10:01:39.913Z,91511.34
2022-08-17T10:04:44.958Z,91504.31
2022-08-17T10:07:46.546Z,91497.97
2022-08-17T10:10:24.903Z,91507.72
2022-08-17T10:12:53.208Z,91499.22
2022-08-17T10:15:42.570Z,91502.03
2022-08-17T10:18:43.263Z,91504.84
2022-08-17T10:21:34.100Z,91503.41
2022-08-17T10:24:35.496Z,91501.94
2022-08-17T10:27:08.871Z,91497.81
2022-08-17T10:29:48.540Z,91496.34
2022-08-17T10:32:40.789Z,91500.59
2022-08-17T10:35:16.628Z,91500.50
2022-08-17T10:38:16.961Z,91500.50
2022-08-17T10:41:11.929Z,91508.91
2022-08-17T10:44:36.954Z,91521.44
2022-08-17T10:47:13.752Z,91511.69
2022-08-17T10:49:54.080Z,91504.63
2022-08-17T10:52:20.944Z,91508.81
2022-08-17T10:55:02.139Z,91504.63
2022-08-17T10:57:39.556Z,91508.81
2022-08-17T11:00:15.493Z,91510.13
2022-08-17T11:02:49.883Z,91508.81
2022-08-17T11:05:33.037Z,91497.59
2022-08-17T11:08:18.227Z,91496.13
2022-08-17T11:11:23.544Z,91497.59
2022-08-17T11:13:58.775Z,91496.13
2022-08-17T11:16:45.667Z,91498.34
2022-08-17T11:19:39.702Z,91486.41
2022-08-17T11:22:37.176Z,91480.78
2022-08-17T11:25:17.499Z,91491.28
2022-08-17T11:27:49.624Z,91496.13
2022-08-17T11:31:05.475Z,91489.09
2022-08-17T11:33:34.100Z,91484.94
2022-08-17T11:36:19.133Z,91479.34
2022-08-17T11:39:06.168Z,91482.13
2022-08-17T11:41:43.181Z,91479.34
2022-08-17T11:44:21.528Z,91490.53
2022-08-17T11:47:09.847Z,91483.50
2022-08-17T11:50:23.466Z,91477.91
2022-08-17T11:52:53.948Z,91479.34
2022-08-17T11:55:39.407Z,91480.06
2022-08-17T11:58:29.987Z,91473.72
2022-08-17T12:01:09.129Z,91474.47
2022-08-17T12:03:42.451Z,91473.03
2022-08-17T12:06:30.478Z,91473.03
2022-08-17T12:09:13.183Z,91475.09
2022-08-17T12:11:58.789Z,91466.69
2022-08-17T12:15:05.739Z,91472.31
2022-08-17T12:17:41.525Z,91487.03
2022-08-17T12:20:24.434Z,91475.84
2022-08-17T12:23:09.688Z,91473.03
2022-08-17T12:25:44.351Z,91463.91
2022-08-17T12:28:36.355Z,91475.09
2022-08-17T12:31:11.924Z,91468.78
2022-08-17T12:33:43.758Z,91473.03
2022-08-17T12:36:15.790Z,91477.91
2022-08-17T12:39:14.369Z,91477.91
2022-08-17T12:41:45.068Z,91474.38
2022-08-17T12:44:12.230Z,91477.91
2022-08-17T12:47:21.870Z,91475.09
2022-08-17T12:49:52.390Z,91460.38
2022-08-17T12:52:29.263Z,91459.66
2022-08-17T12:55:01.931Z,91451.25
2022-08-17T12:57:46.065Z,91448.47
2022-08-17T13:00:28.484Z,91442.88
2022-08-17T13:03:03.335Z,91442.88
2022-08-17T13:05:37.311Z,91448.47
2022-08-17T13:08:29.695Z,91437.97
2022-08-17T13:10:59.704Z,91431.66
2022-08-17T13:13:29.906Z,91428.88
2022-08-17T13:16:06.483Z,91431.66
2022-08-17T13:18:35.774Z,91427.50
2022-08-17T13:21:02.615Z,91424.69
2022-08-17T13:23:32.426Z,91426.78
2022-08-17T13:26:05.969Z,91417.66
2022-08-17T13:28:36.137Z,91409.97
2022-08-17T13:31:41.388Z,91410.69
2022-08-17T13:34:28.384Z,91410.69
2022-08-17T13:37:18.411Z,91405.09
2022-08-17T13:39:47.804Z,91399.50
2022-08-17T13:42:51.647Z,91391.09
2022-08-17T13:45:36.066Z,91385.50
2022-08-17T13:48:12.360Z,91382.69
2022-08-17T13:50:49.311Z,91377.09
2022-08-17T13:53:24.823Z,91377.09
2022-08-17T13:56:38.849Z,91375.66
2022-08-17T13:59:04.731Z,91377.09
2022-08-17T14:01:36.221Z,91370.06
2022-08-17T14:04:14.155Z,91370.78
2022-08-17T14:06:51.851Z,91371.50
2022-08-17T14:09:21.144Z,91377.09
2022-08-17T14:11:51.093Z,91365.91
2022-08-17T14:14:18.383Z,91358.88
2022-08-17T14:16:45.051Z,91352.63
2022-08-17T14:19:13.231Z,91360.31
2022-08-17T14:21:42.963Z,91358.88
2022-08-17T14:24:16.923Z,91357.50
2022-08-17T14:26:44.917Z,91354.69
2022-08-17T14:29:15.075Z,91353.97
2022-08-17T14:31:42.319Z,91349.81
2022-08-17T14:34:15.359Z,91348.38
2022-08-17T14:36:45.500Z,91356.13
2022-08-17T14:39:15.703Z,91351.25
2022-08-17T14:41:42.788Z,91357.59
2022-08-17T14:44:13.195Z,91374.41
2022-08-17T14:46:41.293Z,91370.88
2022-08-17T14:49:10.751Z,91365.25
2022-08-17T14:51:39.736Z,91364.53
2022-08-17T14:54:11.897Z,91361.72
2022-08-17T14:57:23.119Z,91362.47
2022-08-17T14:59:44.994Z,91356.13
2022-08-17T15:02:12.000Z,91355.44
2022-08-17T15:04:43.363Z,91360.31
2022-08-17T15:07:11.648Z,91361.03
2022-08-17T15:09:38.167Z,91354.69
2022-08-17T15:12:06.588Z,91355.44
2022-08-17T15:14:36.446Z,91354.69
2022-08-17T15:17:03.681Z,91361.72
2022-08-17T15:19:30.254Z,91360.31
2022-08-17T15:21:57.138Z,91355.44
2022-08-17T15:24:23.667Z,91354.69
2022-08-17T15:26:50.215Z,91353.97
2022-08-17T15:29:17.029Z,91353.25
2022-08-17T15:31:43.798Z,91353.25
2022-08-17T15:34:10.408Z,91350.47
2022-08-17T15:36:37.087Z,91350.47
2022-08-17T15:39:05.410Z,91349.72
2022-08-17T15:41:32.504Z,91337.16
2022-08-17T15:43:59.136Z,91347.66
2022-08-17T15:46:26.592Z,91353.25
2022-08-17T15:48:58.212Z,91350.47
2022-08-17T15:51:35.560Z,91347.66
2022-08-17T15:54:22.523Z,91349.09
2022-08-17T15:56:49.981Z,91348.38
2022-08-17T15:59:16.554Z,91347.66
2022-08-17T16:03:13.662Z,91344.88
2022-08-17T16:04:31.638Z,91342.06
2022-08-17T16:06:59.618Z,91344.13
2022-08-17T16:09:26.163Z,91341.34
2022-08-17T16:11:56.095Z,91336.47
2022-08-17T16:14:24.533Z,91336.47
2022-08-17T16:16:59.211Z,91339.25
2022-08-17T16:19:25.719Z,91330.88
2022-08-17T16:21:52.288Z,91335.91
2022-08-17T16:24:18.819Z,91341.59
2022-08-17T16:26:45.359Z,91342.50
2022-08-17T16:29:11.937Z,91348.28
2022-08-17T16:31:38.608Z,91337.97
2022-08-17T16:34:16.878Z,91329.13
2022-08-17T16:36:55.385Z,91329.31
2022-08-17T16:39:25.495Z,91319.63
2022-08-17T16:41:52.075Z,91331.72
2022-08-17T16:44:21.289Z,91338.06
2022-08-17T16:46:49.035Z,91324.03
2022-08-17T16:49:24.485Z,91325.59
2022-08-17T16:52:03.739Z,91331.91
2022-08-17T16:54:30.328Z,91339.59
2022-08-17T16:56:56.958Z,91337.50
2022-08-17T16:59:31.041Z,91343.84
2022-08-17T17:02:10.827Z,91334.78
2022-08-17T17:04:48.003Z,91339.66
2022-08-17T17:07:33.825Z,91339.66
2022-08-17T17:10:22.572Z,91345.28
2022-08-17T17:13:01.517Z,91342.41
2022-08-17T17:15:44.967Z,91340.94
2022-08-17T17:18:15.264Z,91338.16
2022-08-17T17:20:54.147Z,91340.94
2022-08-17T17:23:35.159Z,91339.50
2022-08-17T17:26:30.923Z,91350.00
2022-08-17T17:29:18.180Z,91342.94
2022-08-17T17:32:09.800Z,91342.94
2022-08-17T17:34:38.412Z,91336.63
2022-08-17T17:37:15.600Z,91336.63
2022-08-17T17:39:49.048Z,91342.22
2022-08-17T17:42:22.084Z,91342.94
2022-08-17T17:45:10.782Z,91339.41
2022-08-17T17:47:38.000Z,91343.56
2022-08-17T17:50:06.351Z,91336.63
2022-08-17T17:52:37.574Z,91342.22
2022-08-17T17:55:31.574Z,91335.16
2022-08-17T17:58:06.807Z,91342.22
2022-08-17T18:00:40.239Z,91346.38
2022-08-17T18:03:31.120Z,91349.16
2022-08-17T18:06:06.834Z,91347.81
2022-08-17T18:08:48.870Z,91358.31
2022-08-17T18:11:24.118Z,91360.47
2022-08-17T18:14:32.546Z,91367.53
2022-08-17T18:17:00.565Z,91373.84
2022-08-17T18:19:29.496Z,91368.22
2022-08-17T18:22:14.234Z,91350.81
2022-08-17T18:24:44.136Z,91349.44
2022-08-17T18:27:37.664Z,91355.03
2022-08-17T18:30:12.902Z,91366.25
2022-08-17T18:32:42.575Z,91365.53
2022-08-17T18:35:09.141Z,91371.84
2022-08-17T18:37:52.111Z,91367.63
2022-08-17T18:40:21.526Z,91371.84
2022-08-17T18:43:23.048Z,91377.47
2022-08-17T18:45:52.001Z,91385.88
2022-08-17T18:48:20.499Z,91402.69
2022-08-17T18:50:47.824Z,91420.91
2022-08-17T18:53:33.396Z,91426.53
2022-08-17T18:56:16.219Z,91429.31
2022-08-17T18:58:49.883Z,91425.19
2022-08-17T19:01:21.345Z,91443.34
2022-08-17T19:03:49.735Z,91444.72
2022-08-17T19:06:31.295Z,91450.31
2022-08-17T19:08:58.196Z,91461.50
2022-08-17T19:11:31.983Z,91458.72
2022-08-17T19:14:05.544Z,91465.75
2022-08-17T19:16:40.562Z,91472.72
2022-08-17T19:19:49.212Z,91478.31
2022-08-17T19:22:29.010Z,91465.75
2022-08-17T19:25:09.694Z,91468.56
2022-08-17T19:27:46.284Z,91476.88
2022-08-17T19:30:15.070Z,91476.88
2022-08-17T19:32:42.269Z,91476.88
2022-08-17T19:35:16.670Z,91472.00
2022-08-17T19:37:56.491Z,91478.31
2022-08-17T19:40:52.925Z,91479.69
2022-08-17T19:43:34.744Z,91485.19
2022-08-17T19:46:06.050Z,91499.81
2022-08-17T19:49:10.716Z,91510.31
2022-08-17T19:51:50.576Z,91515.81
2022-08-17T19:54:35.119Z,91510.22
2022-08-17T19:57:39.511Z,91521.44
2022-08-17T20:00:13.971Z,91521.34
2022-08-17T20:03:06.307Z,91520.59
2022-08-17T20:06:08.714Z,91525.50
2022-08-17T20:08:26.667Z,91526.19
2022-08-17T20:11:06.983Z,91536.69
2022-08-17T20:13:40.170Z,91555.69
2022-08-17T20:16:07.420Z,91543.75
2022-08-17T20:18:58.776Z,91546.44
2022-08-17T20:21:48.623Z,91554.75
2022-08-17T20:24:39.764Z,91549.88
2022-08-17T20:27:12.104Z,91543.53
2022-08-17T20:30:10.360Z,91549.16
2022-08-17T20:32:49.245Z,91550.59
2022-08-17T20:35:26.544Z,91554.75
2022-08-17T20:37:57.688Z,91548.34
2022-08-17T20:40:39.229Z,91541.38
2022-08-17T20:43:33.844Z,91533.06
2022-08-17T20:46:35.638Z,91531.63
2022-08-17T20:49:15.671Z,91540.66
2022-08-17T20:52:01.142Z,91539.22
2022-08-17T20:54:48.900Z,91539.22
2022-08-17T20:57:33.531Z,91544.06
2022-08-17T21:00:16.549Z,91543.38
2022-08-17T21:02:49.824Z,91542.63
2022-08-17T21:05:32.487Z,91539.09
2022-08-17T21:08:15.467Z,91541.91
2022-08-17T21:10:45.586Z,91534.88
2022-08-17T21:13:13.880Z,91532.06
2022-08-17T21:15:42.093Z,91533.41
2022-08-17T21:18:25.976Z,91531.97
2022-08-17T21:21:17.392Z,91539.00
2022-08-17T21:24:02.680Z,91543.19
2022-08-17T21:26:50.093Z,91543.91
2022-08-17T21:29:31.488Z,91541.72
2022-08-17T21:31:59.549Z,91548.03
2022-08-17T21:34:34.367Z,91547.31
2022-08-17T21:37:23.830Z,91558.50
2022-08-17T21:40:01.230Z,91575.31
2022-08-17T21:42:34.478Z,91568.28
2022-08-17T21:45:17.995Z,91575.31
2022-08-17T21:47:49.519Z,91582.28
2022-08-17T21:50:23.755Z,91579.50
2022-08-17T21:52:54.069Z,91582.28
2022-08-17T21:55:28.918Z,91585.09
2022-08-17T21:58:14.808Z,91575.94
2022-08-17T22:00:44.470Z,91578.06
2022-08-17T22:03:24.216Z,91573.88
2022-08-17T22:05:51.580Z,91571.09
2022-08-17T22:08:22.146Z,91579.50
2022-08-17T22:10:51.442Z,91573.88
2022-08-17T22:13:18.045Z,91578.06
2022-08-17T22:16:27.966Z,91567.56
2022-08-17T22:18:54.695Z,91576.69
2022-08-17T22:21:22.631Z,91578.75
2022-08-17T22:24:15.966Z,91576.59
2022-08-17T22:27:01.120Z,91583.72
2022-08-17T22:29:48.570Z,91579.50
2022-08-17T22:32:42.999Z,91578.75
2022-08-17T22:35:38.423Z,91566.84
2022-08-17T22:38:20.207Z,91573.78
2022-08-17T22:40:52.772Z,91572.44
2022-08-17T22:43:28.666Z,91566.84
2022-08-17T22:45:58.973Z,91571.72
2022-08-17T22:48:28.336Z,91566.84
2022-08-17T22:51:31.006Z,91589.25
2022-08-17T22:54:20.514Z,91596.19
2022-08-17T22:57:14.815Z,91586.44
2022-08-17T22:59:51.536Z,91588.53
2022-08-17T23:02:30.721Z,91577.31
2022-08-17T23:05:10.126Z,91576.59
2022-08-17T23:07:36.957Z,91589.25
2022-08-17T23:10:06.442Z,91587.78
2022-08-17T23:12:37.690Z,91592.66
2022-08-17T23:15:10.616Z,91580.84
2022-08-17T23:17:38.055Z,91573.78
2022-08-17T23:20:08.488Z,91563.31
2022-08-17T23:22:37.905Z,91559.78
2022-08-17T23:25:26.400Z,91565.38
2022-08-17T23:27:53.232Z,91576.59
2022-08-17T23:30:20.474Z,91572.44
2022-08-17T23:32:53.858Z,91570.25
2022-08-17T23:35:21.050Z,91570.97
2022-08-17T23:38:07.639Z,91563.94
2022-08-17T23:40:34.445Z,91563.31
2022-08-17T23:43:01.008Z,91569.53
2022-08-17T23:45:32.560Z,91580.00
2022-08-17T23:48:00.325Z,91574.41
2022-08-17T23:50:31.018Z,91581.47
2022-08-17T23:52:57.837Z,91580.75
2022-08-17T23:55:24.413Z,91585.63
2022-08-17T23:57:51.131Z,91585.63
